Time,TemperatureF,DewpointF,PressureIn,WindDirection,WindDirectionDegrees,WindSpeedMPH,WindSpeedGustMPH,Humidity,HourlyPrecipIn,Conditions,Clouds,dailyrainin,SoftwareType,DateUTC
2013-03-17 00:03:00,31.0,14.0,29.82,NNE,15,0.0,2.0,49,0.00,,,0.00,,2013-03-17 04:03:00,
2013-03-17 00:13:00,31.0,14.0,29.82,NNE,15,0.0,2.0,49,0.00,,,0.00,,2013-03-17 04:13:00,
2013-03-17 00:23:00,29.0,14.0,29.83,NNE,19,0.0,1.0,52,0.00,,,0.00,,2013-03-17 04:23:00,
2013-03-17 00:32:00,29.0,13.0,29.83,NE,44,0.0,1.0,51,0.00,,,0.00,,2013-03-17 04:32:00,
2013-03-17 00:43:00,29.0,13.0,29.83,NE,44,0.0,1.0,51,0.00,,,0.00,,2013-03-17 04:43:00,
2013-03-17 00:53:00,29.0,13.0,29.83,East,90,0.0,2.0,51,0.00,,,0.00,,2013-03-17 04:53:00,
2013-03-17 01:03:00,29.0,13.0,29.83,East,90,0.0,1.0,51,0.00,,,0.00,,2013-03-17 05:03:00,
2013-03-17 01:12:00,29.0,13.0,29.83,East,90,0.0,1.0,51,0.00,,,0.00,,2013-03-17 05:12:00,
2013-03-17 01:22:00,28.0,12.0,29.84,ENE,67,0.0,2.0,50,0.00,,,0.00,,2013-03-17 05:22:00,
2013-03-17 01:32:00,28.0,13.0,29.84,ENE,67,0.0,0.0,52,0.00,,,0.00,,2013-03-17 05:32:00,
2013-03-17 01:42:00,28.0,13.0,29.84,ENE,67,0.0,0.0,52,0.00,,,0.00,,2013-03-17 05:42:00,
2013-03-17 01:52:00,28.0,13.0,29.85,ENE,67,0.0,0.0,53,0.00,,,0.00,,2013-03-17 05:52:00,
2013-03-17 02:02:00,27.0,13.0,29.85,ENE,67,0.0,0.0,55,0.00,,,0.00,,2013-03-17 06:02:00,
2013-03-17 02:12:00,27.0,13.0,29.85,ENE,67,0.0,0.0,55,0.00,,,0.00,,2013-03-17 06:12:00,
2013-03-17 02:22:00,27.0,13.0,29.85,ENE,67,0.0,0.0,55,0.00,,,0.00,,2013-03-17 06:22:00,
2013-03-17 02:32:00,27.0,12.0,29.85,ENE,67,0.0,0.0,52,0.00,,,0.00,,2013-03-17 06:32:00,
2013-03-17 02:42:00,27.0,12.0,29.85,ENE,67,0.0,0.0,52,0.00,,,0.00,,2013-03-17 06:42:00,
2013-03-17 02:52:00,26.0,12.0,29.84,ENE,67,0.0,0.0,54,0.00,,,0.00,,2013-03-17 06:52:00,
2013-03-17 03:02:00,26.0,13.0,29.84,ENE,67,0.0,0.0,57,0.00,,,0.00,,2013-03-17 07:02:00,
2013-03-17 03:12:00,26.0,13.0,29.84,ENE,67,0.0,0.0,57,0.00,,,0.00,,2013-03-17 07:12:00,
2013-03-17 03:22:00,26.0,13.0,29.85,ENE,67,0.0,0.0,58,0.00,,,0.00,,2013-03-17 07:22:00,
2013-03-17 03:32:00,25.0,13.0,29.85,ENE,58,0.0,0.0,60,0.00,,,0.00,,2013-03-17 07:32:00,
2013-03-17 03:42:00,25.0,13.0,29.85,ENE,58,0.0,0.0,60,0.00,,,0.00,,2013-03-17 07:42:00,
2013-03-17 03:52:00,25.0,13.0,29.85,ENE,57,0.0,1.0,59,0.00,,,0.00,,2013-03-17 07:52:00,
2013-03-17 04:03:00,25.0,12.0,29.85,NE,56,0.0,0.0,58,0.00,,,0.00,,2013-03-17 08:03:00,
2013-03-17 04:13:00,25.0,12.0,29.86,NE,56,0.0,0.0,58,0.00,,,0.00,,2013-03-17 08:13:00,
2013-03-17 04:22:00,25.0,12.0,29.86,NE,56,0.0,0.0,58,0.00,,,0.00,,2013-03-17 08:22:00,
2013-03-17 04:32:00,25.0,13.0,29.86,NE,56,0.0,0.0,59,0.00,,,0.00,,2013-03-17 08:32:00,
2013-03-17 04:42:00,25.0,13.0,29.86,NE,56,0.0,0.0,59,0.00,,,0.00,,2013-03-17 08:42:00,
2013-03-17 04:52:00,25.0,13.0,29.86,NE,56,0.0,0.0,60,0.00,,,0.00,,2013-03-17 08:52:00,
2013-03-17 05:03:00,25.0,14.0,29.87,NE,56,0.0,1.0,62,0.00,,,0.00,,2013-03-17 09:03:00,
2013-03-17 05:12:00,25.0,14.0,29.87,NE,56,0.0,1.0,62,0.00,,,0.00,,2013-03-17 09:12:00,
2013-03-17 05:22:00,25.0,13.0,29.88,NE,56,0.0,0.0,61,0.00,,,0.00,,2013-03-17 09:22:00,
2013-03-17 05:32:00,25.0,13.0,29.88,NE,56,0.0,0.0,60,0.00,,,0.00,,2013-03-17 09:32:00,
2013-03-17 05:43:00,25.0,13.0,29.88,NE,56,0.0,0.0,60,0.00,,,0.00,,2013-03-17 09:43:00,
2013-03-17 05:53:00,25.0,13.0,29.88,NE,56,0.0,1.0,60,0.00,,,0.00,,2013-03-17 09:53:00,
2013-03-17 06:03:00,25.0,13.0,29.88,NE,56,0.0,2.0,59,0.00,,,0.00,,2013-03-17 10:03:00,
2013-03-17 06:13:00,25.0,13.0,29.88,NE,56,0.0,2.0,59,0.00,,,0.00,,2013-03-17 10:13:00,
2013-03-17 06:23:00,24.0,13.0,29.89,NE,56,0.0,0.0,63,0.00,,,0.00,,2013-03-17 10:23:00,
2013-03-17 06:33:00,24.0,13.0,29.89,NE,56,0.0,0.0,63,0.00,,,0.00,,2013-03-17 10:33:00,
2013-03-17 06:42:00,24.0,13.0,29.89,NE,56,0.0,0.0,63,0.00,,,0.00,,2013-03-17 10:42:00,
2013-03-17 06:52:00,23.0,14.0,29.89,NE,56,0.0,0.0,67,0.00,,,0.00,,2013-03-17 10:52:00,
2013-03-17 07:02:00,23.0,14.0,29.90,NE,56,0.0,1.0,68,0.00,,,0.00,,2013-03-17 11:02:00,
2013-03-17 07:12:00,23.0,14.0,29.90,NE,56,0.0,1.0,68,0.00,,,0.00,,2013-03-17 11:12:00,
2013-03-17 07:22:00,24.0,15.0,29.91,NW,324,0.0,1.0,68,0.00,,,0.00,,2013-03-17 11:22:00,
2013-03-17 07:32:00,24.0,15.0,29.92,NW,324,0.0,2.0,69,0.00,,,0.00,,2013-03-17 11:32:00,
2013-03-17 07:42:00,24.0,15.0,29.92,NW,324,0.0,2.0,69,0.00,,,0.00,,2013-03-17 11:42:00,
2013-03-17 07:52:00,24.0,15.0,29.93,NNW,331,0.0,2.0,69,0.00,,,0.00,,2013-03-17 11:52:00,
2013-03-17 08:02:00,24.0,15.0,29.94,NNW,331,1.0,2.0,69,0.00,,,0.00,,2013-03-17 12:02:00,
2013-03-17 08:12:00,24.0,15.0,29.94,NNW,331,1.0,2.0,69,0.00,,,0.00,,2013-03-17 12:12:00,
2013-03-17 08:22:00,25.0,16.0,29.96,NNE,25,0.0,3.0,68,0.00,,,0.00,,2013-03-17 12:22:00,
2013-03-17 08:33:00,26.0,16.0,29.97,NNE,29,3.0,4.0,66,0.00,,,0.00,,2013-03-17 12:33:00,
2013-03-17 08:52:00,27.0,17.0,29.98,North,11,0.0,4.0,65,0.00,,,0.00,,2013-03-17 12:52:00,
2013-03-17 09:02:00,27.0,16.0,29.98,North,11,2.0,7.0,62,0.00,,,0.00,,2013-03-17 13:02:00,
2013-03-17 09:12:00,27.0,16.0,29.98,North,11,2.0,7.0,62,0.00,,,0.00,,2013-03-17 13:12:00,
2013-03-17 09:22:00,27.0,16.0,29.98,NE,34,1.0,5.0,62,0.00,,,0.00,,2013-03-17 13:22:00,
2013-03-17 09:32:00,28.0,15.0,29.98,NNW,334,4.0,8.0,58,0.00,,,0.00,,2013-03-17 13:32:00,
2013-03-17 09:42:00,28.0,15.0,29.98,NNW,334,4.0,8.0,58,0.00,,,0.00,,2013-03-17 13:42:00,
2013-03-17 09:52:00,28.0,13.0,29.98,NNE,27,2.0,5.0,53,0.00,,,0.00,,2013-03-17 13:52:00,
2013-03-17 10:02:00,29.0,11.0,29.98,North,351,2.0,4.0,47,0.00,,,0.00,,2013-03-17 14:02:00,
2013-03-17 10:12:00,29.0,11.0,29.98,North,351,2.0,4.0,47,0.00,,,0.00,,2013-03-17 14:12:00,
2013-03-17 10:22:00,30.0,11.0,29.98,South,169,0.0,6.0,44,0.00,,,0.00,,2013-03-17 14:22:00,
2013-03-17 10:32:00,31.0,10.0,29.98,NW,326,2.0,5.0,41,0.00,,,0.00,,2013-03-17 14:32:00,
2013-03-17 10:42:00,31.0,10.0,29.98,NW,326,2.0,5.0,41,0.00,,,0.00,,2013-03-17 14:42:00,
2013-03-17 10:53:00,30.0,10.0,29.98,NNW,344,2.0,7.0,43,0.00,,,0.00,,2013-03-17 14:53:00,
2013-03-17 11:02:00,32.0,12.0,29.98,NNE,26,0.0,4.0,43,0.00,,,0.00,,2013-03-17 15:02:00,
2013-03-17 11:12:00,32.0,12.0,29.98,NNE,26,0.0,4.0,43,0.00,,,0.00,,2013-03-17 15:12:00,
2013-03-17 11:23:00,32.0,11.0,29.98,NNW,348,2.0,6.0,41,0.00,,,0.00,,2013-03-17 15:23:00,
2013-03-17 11:33:00,33.0,12.0,29.98,NNE,15,1.0,4.0,41,0.00,,,0.00,,2013-03-17 15:33:00,
2013-03-17 11:43:00,33.0,12.0,29.98,NNE,15,1.0,4.0,41,0.00,,,0.00,,2013-03-17 15:43:00,
2013-03-17 11:53:00,32.0,12.0,29.98,North,360,1.0,6.0,42,0.00,,,0.00,,2013-03-17 15:53:00,
2013-03-17 12:03:00,35.0,13.0,29.98,NE,39,3.0,7.0,39,0.00,,,0.00,,2013-03-17 16:03:00,
2013-03-17 12:12:00,35.0,13.0,29.98,NE,39,3.0,7.0,39,0.00,,,0.00,,2013-03-17 16:12:00,
2013-03-17 12:23:00,35.0,13.0,29.98,WNW,300,4.0,7.0,39,0.00,,,0.00,,2013-03-17 16:23:00,
2013-03-17 12:33:00,34.0,10.0,29.99,ENE,64,3.0,9.0,36,0.00,,,0.00,,2013-03-17 16:33:00,
2013-03-17 12:43:00,34.0,10.0,29.99,ENE,64,3.0,9.0,36,0.00,,,0.00,,2013-03-17 16:43:00,
2013-03-17 12:52:00,36.0,11.0,29.99,NNE,19,3.0,15.0,35,0.00,,,0.00,,2013-03-17 16:52:00,
2013-03-17 13:02:00,35.0,10.0,29.99,NNW,343,4.0,16.0,35,0.00,,,0.00,,2013-03-17 17:02:00,
2013-03-17 13:12:00,35.0,10.0,29.99,NNW,343,4.0,16.0,35,0.00,,,0.00,,2013-03-17 17:12:00,
2013-03-17 13:22:00,35.0,9.0,29.98,NNW,328,2.0,7.0,33,0.00,,,0.00,,2013-03-17 17:22:00,
2013-03-17 13:33:00,35.0,9.0,29.98,NNW,334,1.0,12.0,33,0.00,,,0.00,,2013-03-17 17:33:00,
2013-03-17 13:42:00,35.0,9.0,29.98,NNW,334,1.0,12.0,33,0.00,,,0.00,,2013-03-17 17:42:00,
2013-03-17 13:53:00,36.0,8.0,29.98,East,83,2.0,7.0,30,0.00,,,0.00,,2013-03-17 17:53:00,
2013-03-17 14:02:00,36.0,8.0,29.98,NW,321,3.0,10.0,30,0.00,,,0.00,,2013-03-17 18:02:00,
2013-03-17 14:12:00,36.0,8.0,29.98,NW,321,3.0,10.0,30,0.00,,,0.00,,2013-03-17 18:12:00,
2013-03-17 14:22:00,35.0,5.0,29.98,North,6,2.0,9.0,28,0.00,,,0.00,,2013-03-17 18:22:00,
2013-03-17 14:32:00,37.0,8.0,29.98,NNE,33,1.0,10.0,29,0.00,,,0.00,,2013-03-17 18:32:00,
2013-03-17 14:42:00,37.0,8.0,29.98,NNE,33,1.0,10.0,29,0.00,,,0.00,,2013-03-17 18:42:00,
2013-03-17 14:52:00,36.0,6.0,29.99,NNW,342,7.0,10.0,28,0.00,,,0.00,,2013-03-17 18:52:00,
2013-03-17 15:02:00,36.0,8.0,29.99,North,6,4.0,6.0,30,0.00,,,0.00,,2013-03-17 19:02:00,
2013-03-17 15:12:00,36.0,8.0,29.99,North,6,4.0,6.0,30,0.00,,,0.00,,2013-03-17 19:12:00,
2013-03-17 15:22:00,35.0,7.0,30.00,NNE,12,1.0,6.0,30,0.00,,,0.00,,2013-03-17 19:22:00,
2013-03-17 15:33:00,35.0,6.0,30.00,NE,47,6.0,12.0,29,0.00,,,0.00,,2013-03-17 19:33:00,
2013-03-17 15:42:00,35.0,6.0,30.00,NE,47,6.0,12.0,29,0.00,,,0.00,,2013-03-17 19:42:00,
2013-03-17 15:53:00,35.0,7.0,30.01,NNE,20,4.0,5.0,30,0.00,,,0.00,,2013-03-17 19:53:00,
2013-03-17 16:02:00,36.0,8.0,30.01,NE,40,3.0,5.0,30,0.00,,,0.00,,2013-03-17 20:02:00,
2013-03-17 16:12:00,36.0,8.0,30.01,NE,40,3.0,5.0,30,0.00,,,0.00,,2013-03-17 20:12:00,
2013-03-17 16:22:00,35.0,7.0,30.02,NNE,20,1.0,7.0,30,0.00,,,0.00,,2013-03-17 20:22:00,
2013-03-17 16:33:00,35.0,6.0,30.02,NW,321,2.0,7.0,29,0.00,,,0.00,,2013-03-17 20:33:00,
2013-03-17 16:42:00,35.0,6.0,30.02,NW,321,2.0,7.0,29,0.00,,,0.00,,2013-03-17 20:42:00,
2013-03-17 16:52:00,35.0,6.0,30.03,NW,319,1.0,9.0,29,0.00,,,0.00,,2013-03-17 20:52:00,
2013-03-17 17:03:00,35.0,6.0,30.03,North,5,0.0,6.0,29,0.00,,,0.00,,2013-03-17 21:03:00,
2013-03-17 17:12:00,35.0,6.0,30.03,North,5,0.0,6.0,29,0.00,,,0.00,,2013-03-17 21:12:00,
2013-03-17 17:22:00,35.0,4.0,30.03,North,9,6.0,9.0,27,0.00,,,0.00,,2013-03-17 21:22:00,
2013-03-17 17:33:00,34.0,4.0,30.05,West,277,3.0,4.0,27,0.00,,,0.00,,2013-03-17 21:33:00,
2013-03-17 17:43:00,34.0,4.0,30.05,West,277,3.0,4.0,27,0.00,,,0.00,,2013-03-17 21:43:00,
2013-03-17 17:52:00,34.0,4.0,30.05,NNE,29,4.0,10.0,28,0.00,,,0.00,,2013-03-17 21:52:00,
2013-03-17 18:03:00,33.0,3.0,30.06,North,350,1.0,15.0,28,0.00,,,0.00,,2013-03-17 22:03:00,
2013-03-17 18:13:00,33.0,3.0,30.06,North,355,2.0,9.0,28,0.00,,,0.00,,2013-03-17 22:13:00,
2013-03-17 18:23:00,33.0,3.0,30.06,North,355,2.0,9.0,28,0.00,,,0.00,,2013-03-17 22:23:00,
2013-03-17 18:33:00,32.0,3.0,30.08,NNE,20,1.0,7.0,29,0.00,,,0.00,,2013-03-17 22:33:00,
2013-03-17 18:42:00,32.0,3.0,30.08,NNE,20,1.0,7.0,29,0.00,,,0.00,,2013-03-17 22:42:00,
2013-03-17 18:53:00,32.0,3.0,30.08,NE,43,0.0,1.0,29,0.00,,,0.00,,2013-03-17 22:53:00,
2013-03-17 19:03:00,31.0,3.0,30.09,NNE,16,2.0,3.0,30,0.00,,,0.00,,2013-03-17 23:03:00,
2013-03-17 19:12:00,31.0,3.0,30.09,NNE,16,2.0,3.0,30,0.00,,,0.00,,2013-03-17 23:12:00,
2013-03-17 19:22:00,31.0,5.0,30.10,NNE,18,3.0,6.0,32,0.00,,,0.00,,2013-03-17 23:22:00,
2013-03-17 19:33:00,30.0,4.0,30.11,NNE,26,0.0,2.0,32,0.00,,,0.00,,2013-03-17 23:33:00,
2013-03-17 19:42:00,30.0,4.0,30.11,NNE,26,0.0,2.0,32,0.00,,,0.00,,2013-03-17 23:42:00,
2013-03-17 19:53:00,30.0,4.0,30.12,NNW,344,0.0,2.0,32,0.00,,,0.00,,2013-03-17 23:53:00,
2013-03-17 20:03:00,29.0,4.0,30.14,NNW,344,0.0,0.0,33,0.00,,,0.00,,2013-03-18 00:03:00,
2013-03-17 20:12:00,29.0,4.0,30.14,NNW,344,0.0,0.0,33,0.00,,,0.00,,2013-03-18 00:12:00,
2013-03-17 20:22:00,29.0,4.0,30.14,NE,51,0.0,0.0,33,0.00,,,0.00,,2013-03-18 00:22:00,
2013-03-17 20:33:00,29.0,4.0,30.15,NE,39,2.0,3.0,34,0.00,,,0.00,,2013-03-18 00:33:00,
2013-03-17 20:42:00,29.0,4.0,30.15,NE,39,2.0,3.0,34,0.00,,,0.00,,2013-03-18 00:42:00,
2013-03-17 20:53:00,28.0,2.0,30.16,NNW,328,0.0,1.0,32,0.00,,,0.00,,2013-03-18 00:53:00,
2013-03-17 21:02:00,28.0,3.0,30.17,NNW,328,0.0,1.0,33,0.00,,,0.00,,2013-03-18 01:02:00,
2013-03-17 21:12:00,28.0,3.0,30.17,NNW,328,0.0,1.0,33,0.00,,,0.00,,2013-03-18 01:12:00,
2013-03-17 21:22:00,28.0,4.0,30.17,NNW,328,0.0,1.0,35,0.00,,,0.00,,2013-03-18 01:22:00,
2013-03-17 21:32:00,28.0,5.0,30.18,NNW,328,0.0,0.0,36,0.00,,,0.00,,2013-03-18 01:32:00,
2013-03-17 21:42:00,28.0,5.0,30.18,NNW,328,0.0,0.0,36,0.00,,,0.00,,2013-03-18 01:42:00,
2013-03-17 21:52:00,27.0,5.0,30.19,ENE,68,0.0,2.0,38,0.00,,,0.00,,2013-03-18 01:52:00,
2013-03-17 22:02:00,27.0,6.0,30.20,NE,44,0.0,2.0,40,0.00,,,0.00,,2013-03-18 02:02:00,
2013-03-17 22:12:00,27.0,6.0,30.20,NE,44,0.0,2.0,40,0.00,,,0.00,,2013-03-18 02:12:00,
2013-03-17 22:22:00,27.0,6.0,30.21,ENE,65,0.0,2.0,41,0.00,,,0.00,,2013-03-18 02:22:00,
2013-03-17 22:32:00,26.0,6.0,30.22,East,98,0.0,3.0,41,0.00,,,0.00,,2013-03-18 02:32:00,
2013-03-17 22:42:00,26.0,6.0,30.22,East,98,0.0,3.0,41,0.00,,,0.00,,2013-03-18 02:42:00,
2013-03-17 22:52:00,26.0,4.0,30.23,NE,50,2.0,4.0,39,0.00,,,0.00,,2013-03-18 02:52:00,
2013-03-17 23:03:00,26.0,4.0,30.23,NE,38,0.0,3.0,39,0.00,,,0.00,,2013-03-18 03:03:00,
2013-03-17 23:11:00,26.0,4.0,30.23,NE,38,0.0,3.0,39,0.00,,,0.00,,2013-03-18 03:11:00,
2013-03-17 23:22:00,26.0,3.0,30.24,NNW,342,0.0,2.0,37,0.00,,,0.00,,2013-03-18 03:22:00,
2013-03-17 23:33:00,26.0,4.0,30.24,ENE,68,0.0,1.0,38,0.00,,,0.00,,2013-03-18 03:33:00,
2013-03-17 23:42:00,26.0,4.0,30.24,ENE,68,0.0,1.0,38,0.00,,,0.00,,2013-03-18 03:42:00,
2013-03-17 23:53:00,26.0,4.0,30.25,ENE,68,0.0,1.0,38,0.00,,,0.00,,2013-03-18 03:53:00,